createdAt,value
2022-11-29T00:01:15.000Z,98096
2022-11-29T00:02:42.000Z,98099
2022-11-29T00:04:48.000Z,98098
2022-11-29T00:06:15.000Z,98098
2022-11-29T00:08:21.000Z,98091
2022-11-29T00:09:47.000Z,98088
2022-11-29T00:11:53.000Z,98087
2022-11-29T00:13:20.000Z,98085
2022-11-29T00:15:26.000Z,98085
2022-11-29T00:16:52.000Z,98080
2022-11-29T00:18:58.000Z,98083
2022-11-29T00:20:25.000Z,98083
2022-11-29T00:22:31.000Z,98083
2022-11-29T00:23:58.000Z,98085
2022-11-29T00:26:04.000Z,98085
2022-11-29T00:28:55.000Z,98085
2022-11-29T00:30:21.000Z,98082
2022-11-29T00:32:27.000Z,98081
2022-11-29T00:33:54.000Z,98086
2022-11-29T00:36:00.000Z,98082
2022-11-29T00:37:26.000Z,98087
2022-11-29T00:39:33.000Z,98085
2022-11-29T00:40:59.000Z,98083
2022-11-29T00:43:05.000Z,98082
2022-11-29T00:44:32.000Z,98084
2022-11-29T00:46:38.000Z,98082
2022-11-29T00:48:04.000Z,98081
2022-11-29T00:50:10.000Z,98083
2022-11-29T00:51:37.000Z,98085
2022-11-29T00:53:43.000Z,98087
2022-11-29T00:55:10.000Z,98088
2022-11-29T00:57:16.000Z,98084
2022-11-29T00:58:42.000Z,98084
2022-11-29T01:00:48.000Z,98086
2022-11-29T01:02:15.000Z,98084
2022-11-29T01:04:21.000Z,98084
2022-11-29T01:07:12.000Z,98083
2022-11-29T01:08:38.000Z,98087
2022-11-29T01:10:44.000Z,98086
2022-11-29T01:12:11.000Z,98086
2022-11-29T01:14:17.000Z,98083
2022-11-29T01:15:44.000Z,98082
2022-11-29T01:17:50.000Z,98087
2022-11-29T01:19:16.000Z,98087
2022-11-29T01:21:22.000Z,98088
2022-11-29T01:22:49.000Z,98087
2022-11-29T01:24:55.000Z,98094
2022-11-29T01:26:21.000Z,98092
2022-11-29T01:28:27.000Z,98092
2022-11-29T01:29:54.000Z,98094
2022-11-29T01:32:00.000Z,98093
2022-11-29T01:33:26.000Z,98091
2022-11-29T01:35:33.000Z,98093
2022-11-29T01:36:59.000Z,98093
2022-11-29T01:39:05.000Z,98096
2022-11-29T01:40:32.000Z,98098
2022-11-29T01:42:38.000Z,98094
2022-11-29T01:45:29.000Z,98095
2022-11-29T01:46:55.000Z,98101
2022-11-29T01:49:01.000Z,98101
2022-11-29T01:50:28.000Z,98101
2022-11-29T01:52:34.000Z,98101
2022-11-29T01:54:00.000Z,98104
2022-11-29T01:56:06.000Z,98102
2022-11-29T01:57:33.000Z,98101
2022-11-29T01:59:39.000Z,98100
2022-11-29T02:01:06.000Z,98100
2022-11-29T02:03:12.000Z,98101
2022-11-29T02:04:38.000Z,98094
2022-11-29T02:06:44.000Z,98097
2022-11-29T02:08:11.000Z,98093
2022-11-29T02:10:17.000Z,98096
2022-11-29T02:11:44.000Z,98098
2022-11-29T02:13:50.000Z,98099
2022-11-29T02:15:16.000Z,98098
2022-11-29T02:17:22.000Z,98099
2022-11-29T02:18:49.000Z,98102
2022-11-29T02:20:55.000Z,98103
2022-11-29T02:23:46.000Z,98102
2022-11-29T02:25:13.000Z,98101
2022-11-29T02:27:19.000Z,98101
2022-11-29T02:28:45.000Z,98100
2022-11-29T02:30:52.000Z,98101
2022-11-29T02:32:18.000Z,98103
2022-11-29T02:34:24.000Z,98101
2022-11-29T02:35:51.000Z,98100
2022-11-29T02:37:57.000Z,98101
2022-11-29T02:39:23.000Z,98103
2022-11-29T02:41:29.000Z,98102
2022-11-29T02:42:56.000Z,98103
2022-11-29T02:45:03.000Z,98107
2022-11-29T02:46:29.000Z,98104
2022-11-29T02:48:35.000Z,98103
2022-11-29T02:50:02.000Z,98102
2022-11-29T02:52:08.000Z,98102
2022-11-29T02:53:34.000Z,98103
2022-11-29T02:55:40.000Z,98103
2022-11-29T02:57:07.000Z,98107
2022-11-29T02:59:13.000Z,98109
2022-11-29T03:02:05.000Z,98110
2022-11-29T03:03:31.000Z,98111
2022-11-29T03:05:37.000Z,98114
2022-11-29T03:07:04.000Z,98114
2022-11-29T03:09:10.000Z,98116
2022-11-29T03:10:36.000Z,98120
2022-11-29T03:12:42.000Z,98125
2022-11-29T03:14:09.000Z,98123
2022-11-29T03:16:15.000Z,98124
2022-11-29T03:17:42.000Z,98128
2022-11-29T03:19:48.000Z,98128
2022-11-29T03:21:14.000Z,98127
2022-11-29T03:23:20.000Z,98126
2022-11-29T03:24:47.000Z,98130
2022-11-29T03:26:53.000Z,98127
2022-11-29T03:28:20.000Z,98129
2022-11-29T03:30:26.000Z,98129
2022-11-29T03:31:52.000Z,98133
2022-11-29T03:33:58.000Z,98131
2022-11-29T03:35:25.000Z,98135
2022-11-29T03:37:31.000Z,98135
2022-11-29T03:40:22.000Z,98132
2022-11-29T03:41:48.000Z,98137
2022-11-29T03:43:55.000Z,98139
2022-11-29T03:45:21.000Z,98139
2022-11-29T03:47:27.000Z,98136
2022-11-29T03:48:54.000Z,98139
2022-11-29T03:51:00.000Z,98139
2022-11-29T03:52:26.000Z,98140
2022-11-29T03:54:32.000Z,98141
2022-11-29T03:55:59.000Z,98140
2022-11-29T03:58:05.000Z,98143
2022-11-29T03:59:32.000Z,98144
2022-11-29T04:01:38.000Z,98142
2022-11-29T04:03:04.000Z,98139
2022-11-29T04:05:10.000Z,98143
2022-11-29T04:06:37.000Z,98141
2022-11-29T04:08:43.000Z,98140
2022-11-29T04:10:10.000Z,98140
2022-11-29T04:12:16.000Z,98144
2022-11-29T04:13:42.000Z,98143
2022-11-29T04:15:48.000Z,98146
2022-11-29T04:18:39.000Z,98143
2022-11-29T04:20:06.000Z,98145
2022-11-29T04:22:12.000Z,98150
2022-11-29T04:23:39.000Z,98150
2022-11-29T04:25:45.000Z,98147
2022-11-29T04:27:11.000Z,98151
2022-11-29T04:29:17.000Z,98147
2022-11-29T04:30:44.000Z,98146
2022-11-29T04:32:50.000Z,98147
2022-11-29T04:34:16.000Z,98149
2022-11-29T04:36:22.000Z,98152
2022-11-29T04:37:49.000Z,98151
2022-11-29T04:39:55.000Z,98156
2022-11-29T04:41:22.000Z,98158
2022-11-29T04:43:28.000Z,98159
2022-11-29T04:44:54.000Z,98160
2022-11-29T04:47:00.000Z,98168
2022-11-29T04:48:27.000Z,98166
2022-11-29T04:50:33.000Z,98169
2022-11-29T04:51:59.000Z,98173
2022-11-29T04:54:05.000Z,98175
2022-11-29T04:56:56.000Z,98177
2022-11-29T04:58:23.000Z,98178
2022-11-29T05:00:29.000Z,98179
2022-11-29T05:01:56.000Z,98179
2022-11-29T05:04:02.000Z,98174
2022-11-29T05:05:28.000Z,98178
2022-11-29T05:07:34.000Z,98175
2022-11-29T05:09:01.000Z,98178
2022-11-29T05:11:07.000Z,98177
2022-11-29T05:12:34.000Z,98181
2022-11-29T05:14:40.000Z,98182
2022-11-29T05:16:06.000Z,98184
2022-11-29T05:18:12.000Z,98192
2022-11-29T05:19:39.000Z,98194
2022-11-29T05:21:45.000Z,98195
2022-11-29T05:23:11.000Z,98199
2022-11-29T05:25:18.000Z,98198
2022-11-29T05:26:44.000Z,98199
2022-11-29T05:28:50.000Z,98200
2022-11-29T05:30:17.000Z,98198
2022-11-29T05:32:23.000Z,98204
2022-11-29T05:35:14.000Z,98202
2022-11-29T05:36:40.000Z,98203
2022-11-29T05:38:46.000Z,98207
2022-11-29T05:40:13.000Z,98206
2022-11-29T05:42:19.000Z,98210
2022-11-29T05:43:46.000Z,98214
2022-11-29T05:45:52.000Z,98214
2022-11-29T05:47:18.000Z,98219
2022-11-29T05:49:24.000Z,98219
2022-11-29T05:50:51.000Z,98214
2022-11-29T05:52:57.000Z,98217
2022-11-29T05:54:23.000Z,98220
2022-11-29T05:56:29.000Z,98222
2022-11-29T05:57:56.000Z,98222
2022-11-29T06:00:02.000Z,98221
2022-11-29T06:01:29.000Z,98226
2022-11-29T06:03:35.000Z,98227
2022-11-29T06:05:01.000Z,98229
2022-11-29T06:07:08.000Z,98232
2022-11-29T06:08:34.000Z,98234
2022-11-29T06:10:40.000Z,98236
2022-11-29T06:13:31.000Z,98241
2022-11-29T06:14:58.000Z,98242
2022-11-29T06:17:04.000Z,98245
2022-11-29T06:18:30.000Z,98243
2022-11-29T06:20:36.000Z,98245
2022-11-29T06:22:03.000Z,98246
2022-11-29T06:24:09.000Z,98244
2022-11-29T06:25:35.000Z,98247
2022-11-29T06:27:42.000Z,98244
2022-11-29T06:29:08.000Z,98250
2022-11-29T06:31:14.000Z,98248
2022-11-29T06:32:41.000Z,98248
2022-11-29T06:34:47.000Z,98251
2022-11-29T06:36:14.000Z,98253
2022-11-29T06:38:20.000Z,98252
2022-11-29T06:39:47.000Z,98257
2022-11-29T06:41:53.000Z,98253
2022-11-29T06:43:20.000Z,98253
2022-11-29T06:45:26.000Z,98254
2022-11-29T06:46:52.000Z,98256
2022-11-29T06:48:58.000Z,98258
2022-11-29T06:51:53.000Z,98265
2022-11-29T06:53:19.000Z,98264
2022-11-29T06:55:26.000Z,98268
2022-11-29T06:56:52.000Z,98270
2022-11-29T06:58:58.000Z,98268
2022-11-29T07:00:25.000Z,98267
2022-11-29T07:02:31.000Z,98271
2022-11-29T07:03:57.000Z,98272
2022-11-29T07:06:03.000Z,98276
2022-11-29T07:07:30.000Z,98274
2022-11-29T07:09:36.000Z,98277
2022-11-29T07:11:03.000Z,98278
2022-11-29T07:13:09.000Z,98274
2022-11-29T07:14:35.000Z,98283
2022-11-29T07:16:41.000Z,98278
2022-11-29T07:18:08.000Z,98282
2022-11-29T07:20:14.000Z,98282
2022-11-29T07:21:41.000Z,98285
2022-11-29T07:23:47.000Z,98286
2022-11-29T07:25:13.000Z,98285
2022-11-29T07:27:19.000Z,98285
2022-11-29T07:30:11.000Z,98286
2022-11-29T07:31:37.000Z,98287
2022-11-29T07:33:43.000Z,98286
2022-11-29T07:35:10.000Z,98284
2022-11-29T07:37:16.000Z,98284
2022-11-29T07:38:42.000Z,98293
2022-11-29T07:40:48.000Z,98291
2022-11-29T07:42:15.000Z,98290
2022-11-29T07:44:21.000Z,98294
2022-11-29T07:45:48.000Z,98295
2022-11-29T07:47:54.000Z,98296
2022-11-29T07:49:20.000Z,98297
2022-11-29T07:51:26.000Z,98293
2022-11-29T07:52:53.000Z,98297
2022-11-29T07:54:59.000Z,98295
2022-11-29T07:56:26.000Z,98296
2022-11-29T07:58:32.000Z,98300
2022-11-29T07:59:59.000Z,98300
2022-11-29T08:02:05.000Z,98302
2022-11-29T08:03:38.000Z,98305
2022-11-29T08:05:44.000Z,98308
2022-11-29T08:08:35.000Z,98312
2022-11-29T08:10:09.000Z,98317
2022-11-29T08:12:16.000Z,98318
2022-11-29T08:13:42.000Z,98316
2022-11-29T08:15:48.000Z,98318
2022-11-29T08:17:15.000Z,98317
2022-11-29T08:19:21.000Z,98319
2022-11-29T08:20:47.000Z,98321
2022-11-29T08:22:53.000Z,98319
2022-11-29T08:24:20.000Z,98321
2022-11-29T08:26:26.000Z,98323
2022-11-29T08:27:58.000Z,98324
2022-11-29T08:30:04.000Z,98326
2022-11-29T08:31:30.000Z,98326
2022-11-29T08:33:36.000Z,98330
2022-11-29T08:35:03.000Z,98330
2022-11-29T08:37:09.000Z,98333
2022-11-29T08:38:35.000Z,98333
2022-11-29T08:40:42.000Z,98336
2022-11-29T08:42:08.000Z,98336
2022-11-29T08:44:14.000Z,98340
2022-11-29T08:47:05.000Z,98341
2022-11-29T08:48:32.000Z,98340
2022-11-29T08:50:38.000Z,98344
2022-11-29T08:52:04.000Z,98343
2022-11-29T08:54:11.000Z,98346
2022-11-29T08:55:37.000Z,98345
2022-11-29T08:57:43.000Z,98345
2022-11-29T08:59:10.000Z,98344
2022-11-29T09:01:16.000Z,98344
2022-11-29T09:02:42.000Z,98352
2022-11-29T09:04:49.000Z,98348
2022-11-29T09:06:15.000Z,98354
2022-11-29T09:08:21.000Z,98354
2022-11-29T09:09:48.000Z,98357
2022-11-29T09:11:54.000Z,98363
2022-11-29T09:13:20.000Z,98363
2022-11-29T09:15:26.000Z,98366
2022-11-29T09:16:53.000Z,98365
2022-11-29T09:18:59.000Z,98369
2022-11-29T09:20:26.000Z,98373
2022-11-29T09:22:32.000Z,98371
2022-11-29T09:25:23.000Z,98375
2022-11-29T09:26:49.000Z,98378
2022-11-29T09:28:56.000Z,98380
2022-11-29T09:30:22.000Z,98380
2022-11-29T09:32:30.000Z,98383
2022-11-29T09:33:56.000Z,98384
2022-11-29T09:36:02.000Z,98381
2022-11-29T09:37:29.000Z,98383
2022-11-29T09:39:35.000Z,98386
2022-11-29T09:41:01.000Z,98387
2022-11-29T09:43:07.000Z,98387
2022-11-29T09:44:34.000Z,98387
2022-11-29T09:46:40.000Z,98388
2022-11-29T09:48:07.000Z,98392
2022-11-29T09:50:13.000Z,98391
2022-11-29T09:51:39.000Z,98393
2022-11-29T09:53:50.000Z,98394
2022-11-29T09:55:16.000Z,98402
2022-11-29T09:57:22.000Z,98400
2022-11-29T09:58:49.000Z,98397
2022-11-29T10:00:55.000Z,98404
2022-11-29T10:03:46.000Z,98402
2022-11-29T10:05:13.000Z,98405
2022-11-29T10:07:19.000Z,98405
2022-11-29T10:08:46.000Z,98410
2022-11-29T10:10:52.000Z,98412
2022-11-29T10:12:18.000Z,98408
2022-11-29T10:14:24.000Z,98410
2022-11-29T10:15:51.000Z,98410
2022-11-29T10:17:57.000Z,98410
2022-11-29T10:19:23.000Z,98407
2022-11-29T10:21:29.000Z,98408
2022-11-29T10:22:56.000Z,98409
2022-11-29T10:25:02.000Z,98409
2022-11-29T10:26:28.000Z,98408
2022-11-29T10:28:41.000Z,98405
2022-11-29T10:30:07.000Z,98404
2022-11-29T10:32:13.000Z,98403
2022-11-29T10:33:40.000Z,98402
2022-11-29T10:35:46.000Z,98402
2022-11-29T10:37:12.000Z,98401
2022-11-29T10:39:19.000Z,98403
2022-11-29T10:42:10.000Z,98404
2022-11-29T10:43:36.000Z,98399
2022-11-29T10:45:42.000Z,98399
2022-11-29T10:47:09.000Z,98397
2022-11-29T10:49:17.000Z,98401
2022-11-29T10:50:43.000Z,98401
2022-11-29T10:52:49.000Z,98402
2022-11-29T10:54:16.000Z,98402
2022-11-29T10:56:22.000Z,98404
2022-11-29T10:57:48.000Z,98402
2022-11-29T10:59:55.000Z,98402
2022-11-29T11:01:21.000Z,98406
2022-11-29T11:03:27.000Z,98407
2022-11-29T11:04:54.000Z,98406
2022-11-29T11:07:00.000Z,98406
2022-11-29T11:08:27.000Z,98404
2022-11-29T11:10:33.000Z,98410
2022-11-29T11:11:59.000Z,98408
2022-11-29T11:14:05.000Z,98404
2022-11-29T11:15:32.000Z,98406
2022-11-29T11:17:38.000Z,98408
2022-11-29T11:20:29.000Z,98411
2022-11-29T11:21:55.000Z,98409
2022-11-29T11:24:01.000Z,98412
2022-11-29T11:25:28.000Z,98412
2022-11-29T11:27:34.000Z,98415
2022-11-29T11:29:00.000Z,98416
2022-11-29T11:31:06.000Z,98412
2022-11-29T11:32:33.000Z,98416
2022-11-29T11:34:39.000Z,98419
2022-11-29T11:36:06.000Z,98418
2022-11-29T11:38:12.000Z,98417
2022-11-29T11:39:39.000Z,98418
2022-11-29T11:41:45.000Z,98422
2022-11-29T11:43:11.000Z,98425
2022-11-29T11:45:17.000Z,98425
2022-11-29T11:46:44.000Z,98427
2022-11-29T11:48:50.000Z,98430
2022-11-29T11:50:17.000Z,98430
2022-11-29T11:52:23.000Z,98431
2022-11-29T11:53:49.000Z,98431
2022-11-29T11:55:55.000Z,98436
2022-11-29T11:58:46.000Z,98436
2022-11-29T12:00:13.000Z,98439
2022-11-29T12:02:19.000Z,98441
2022-11-29T12:03:46.000Z,98439
2022-11-29T12:05:52.000Z,98440
2022-11-29T12:07:19.000Z,98441
2022-11-29T12:09:25.000Z,98439
2022-11-29T12:10:52.000Z,98441
2022-11-29T12:12:58.000Z,98441
2022-11-29T12:14:24.000Z,98438
2022-11-29T12:16:30.000Z,98441
2022-11-29T12:17:57.000Z,98444
2022-11-29T12:20:03.000Z,98443
2022-11-29T12:21:29.000Z,98443
2022-11-29T12:23:35.000Z,98450
2022-11-29T12:25:02.000Z,98445
2022-11-29T12:27:08.000Z,98450
2022-11-29T12:28:35.000Z,98453
2022-11-29T12:30:41.000Z,98455
2022-11-29T12:32:07.000Z,98456
2022-11-29T12:34:13.000Z,98455
2022-11-29T12:37:04.000Z,98455
2022-11-29T12:38:31.000Z,98458
2022-11-29T12:40:37.000Z,98455
2022-11-29T12:42:03.000Z,98455
2022-11-29T12:44:10.000Z,98455
2022-11-29T12:45:36.000Z,98459
2022-11-29T12:47:42.000Z,98459
2022-11-29T12:49:15.000Z,98458
2022-11-29T12:51:21.000Z,98460
2022-11-29T12:52:47.000Z,98461
2022-11-29T12:54:53.000Z,98463
2022-11-29T12:56:20.000Z,98461
2022-11-29T12:58:26.000Z,98462
2022-11-29T12:59:53.000Z,98461
2022-11-29T13:01:59.000Z,98457
2022-11-29T13:03:25.000Z,98462
2022-11-29T13:05:31.000Z,98460
2022-11-29T13:06:58.000Z,98462
2022-11-29T13:09:04.000Z,98461
2022-11-29T13:10:31.000Z,98467
2022-11-29T13:12:37.000Z,98467
2022-11-29T13:15:28.000Z,98467
2022-11-29T13:16:54.000Z,98468
2022-11-29T13:19:01.000Z,98472
2022-11-29T13:20:27.000Z,98471
2022-11-29T13:22:33.000Z,98472
2022-11-29T13:24:00.000Z,98475
2022-11-29T13:26:14.000Z,98475
2022-11-29T13:27:41.000Z,98475
2022-11-29T13:29:47.000Z,98478
2022-11-29T13:31:14.000Z,98475
2022-11-29T13:33:20.000Z,98476
2022-11-29T13:34:46.000Z,98472
2022-11-29T13:36:53.000Z,98474
2022-11-29T13:38:19.000Z,98469
2022-11-29T13:40:26.000Z,98470
2022-11-29T13:41:52.000Z,98471
2022-11-29T13:43:58.000Z,98471
2022-11-29T13:45:25.000Z,98470
2022-11-29T13:47:31.000Z,98473
2022-11-29T13:48:57.000Z,98472
2022-11-29T13:51:03.000Z,98475
2022-11-29T13:53:54.000Z,98473
2022-11-29T13:55:21.000Z,98474
2022-11-29T13:57:27.000Z,98476
2022-11-29T13:58:54.000Z,98476
2022-11-29T14:01:00.000Z,98477
2022-11-29T14:02:26.000Z,98481
2022-11-29T14:04:32.000Z,98480
2022-11-29T14:05:59.000Z,98480
2022-11-29T14:08:05.000Z,98482
2022-11-29T14:09:31.000Z,98481
2022-11-29T14:11:37.000Z,98480
2022-11-29T14:13:04.000Z,98485
2022-11-29T14:15:10.000Z,98481
2022-11-29T14:16:37.000Z,98486
2022-11-29T14:18:43.000Z,98487
2022-11-29T14:20:09.000Z,98488
2022-11-29T14:22:15.000Z,98488
2022-11-29T14:23:42.000Z,98486
2022-11-29T14:25:48.000Z,98486
2022-11-29T14:27:18.000Z,98488
2022-11-29T14:29:25.000Z,98488
2022-11-29T14:32:16.000Z,98492
2022-11-29T14:33:43.000Z,98491
2022-11-29T14:35:49.000Z,98492
2022-11-29T14:37:15.000Z,98493
2022-11-29T14:39:21.000Z,98492
2022-11-29T14:40:48.000Z,98491
2022-11-29T14:42:54.000Z,98492
2022-11-29T14:44:21.000Z,98492
2022-11-29T14:46:27.000Z,98493
2022-11-29T14:47:56.000Z,98498
2022-11-29T14:50:02.000Z,98503
2022-11-29T14:51:28.000Z,98506
2022-11-29T14:53:34.000Z,98510
2022-11-29T14:55:01.000Z,98507
2022-11-29T14:57:07.000Z,98508
2022-11-29T14:58:34.000Z,98510
2022-11-29T15:00:40.000Z,98511
2022-11-29T15:02:06.000Z,98514
2022-11-29T15:04:13.000Z,98512
2022-11-29T15:05:39.000Z,98519
2022-11-29T15:07:46.000Z,98519
2022-11-29T15:10:37.000Z,98521
2022-11-29T15:12:03.000Z,98524
2022-11-29T15:14:10.000Z,98523
2022-11-29T15:15:36.000Z,98525
2022-11-29T15:17:42.000Z,98529
2022-11-29T15:19:09.000Z,98533
2022-11-29T15:21:15.000Z,98533
2022-11-29T15:22:41.000Z,98534
2022-11-29T15:24:47.000Z,98532
2022-11-29T15:26:14.000Z,98534
2022-11-29T15:28:20.000Z,98534
2022-11-29T15:29:47.000Z,98532
2022-11-29T15:31:53.000Z,98533
2022-11-29T15:33:19.000Z,98532
2022-11-29T15:35:25.000Z,98534
2022-11-29T15:36:52.000Z,98536
2022-11-29T15:38:58.000Z,98540
2022-11-29T15:40:25.000Z,98538
2022-11-29T15:42:31.000Z,98541
2022-11-29T15:43:59.000Z,98539
2022-11-29T15:46:05.000Z,98539
2022-11-29T15:48:56.000Z,98542
2022-11-29T15:50:22.000Z,98545
2022-11-29T15:52:29.000Z,98548
2022-11-29T15:53:55.000Z,98547
2022-11-29T15:56:18.000Z,98552
2022-11-29T15:57:45.000Z,98553
2022-11-29T15:59:51.000Z,98559
2022-11-29T16:01:17.000Z,98561
2022-11-29T16:03:23.000Z,98563
2022-11-29T16:04:50.000Z,98559
2022-11-29T16:06:56.000Z,98565
2022-11-29T16:08:23.000Z,98568
2022-11-29T16:10:29.000Z,98565
2022-11-29T16:12:01.000Z,98570
2022-11-29T16:14:07.000Z,98568
2022-11-29T16:15:34.000Z,98564
2022-11-29T16:17:40.000Z,98570
2022-11-29T16:19:07.000Z,98568
2022-11-29T16:21:13.000Z,98569
2022-11-29T16:22:39.000Z,98572
2022-11-29T16:24:46.000Z,98576
2022-11-29T16:27:37.000Z,98578
2022-11-29T16:29:04.000Z,98575
2022-11-29T16:31:10.000Z,98579
2022-11-29T16:32:43.000Z,98582
2022-11-29T16:34:49.000Z,98581
2022-11-29T16:36:16.000Z,98580
2022-11-29T16:38:22.000Z,98579
2022-11-29T16:39:49.000Z,98581
2022-11-29T16:41:55.000Z,98588
2022-11-29T16:43:21.000Z,98582
2022-11-29T16:45:27.000Z,98587
2022-11-29T16:46:54.000Z,98585
2022-11-29T16:49:00.000Z,98585
2022-11-29T16:50:27.000Z,98588
2022-11-29T16:52:33.000Z,98585
2022-11-29T16:53:59.000Z,98588
2022-11-29T16:56:05.000Z,98590
2022-11-29T16:57:32.000Z,98593
2022-11-29T16:59:38.000Z,98590
2022-11-29T17:01:04.000Z,98594
2022-11-29T17:03:11.000Z,98593
2022-11-29T17:06:02.000Z,98597
2022-11-29T17:07:28.000Z,98594
2022-11-29T17:09:34.000Z,98599
2022-11-29T17:11:01.000Z,98599
2022-11-29T17:13:07.000Z,98598
2022-11-29T17:14:34.000Z,98600
2022-11-29T17:16:40.000Z,98600
2022-11-29T17:18:06.000Z,98598
2022-11-29T17:20:12.000Z,98603
2022-11-29T17:21:39.000Z,98603
2022-11-29T17:23:45.000Z,98608
2022-11-29T17:25:11.000Z,98604
2022-11-29T17:27:18.000Z,98606
2022-11-29T17:28:44.000Z,98607
2022-11-29T17:30:50.000Z,98610
2022-11-29T17:32:17.000Z,98609
2022-11-29T17:34:28.000Z,98608
2022-11-29T17:35:54.000Z,98608
2022-11-29T17:38:00.000Z,98611
2022-11-29T17:39:27.000Z,98613
2022-11-29T17:41:33.000Z,98613
2022-11-29T17:44:24.000Z,98616
2022-11-29T17:45:51.000Z,98614
2022-11-29T17:47:57.000Z,98617
2022-11-29T17:49:23.000Z,98621
2022-11-29T17:51:29.000Z,98619
2022-11-29T17:53:18.000Z,98621
2022-11-29T17:55:24.000Z,98621
2022-11-29T17:56:55.000Z,98624
2022-11-29T17:59:02.000Z,98622
2022-11-29T18:00:28.000Z,98624
2022-11-29T18:02:34.000Z,98624
2022-11-29T18:04:01.000Z,98628
2022-11-29T18:06:07.000Z,98628
2022-11-29T18:07:33.000Z,98631
2022-11-29T18:09:40.000Z,98626
2022-11-29T18:11:06.000Z,98627
2022-11-29T18:13:12.000Z,98630
2022-11-29T18:14:39.000Z,98628
2022-11-29T18:16:45.000Z,98629
2022-11-29T18:18:12.000Z,98629
2022-11-29T18:20:18.000Z,98633
2022-11-29T18:23:09.000Z,98633
2022-11-29T18:24:36.000Z,98634
2022-11-29T18:26:42.000Z,98632
2022-11-29T18:28:08.000Z,98633
2022-11-29T18:30:14.000Z,98632
2022-11-29T18:31:41.000Z,98638
2022-11-29T18:33:47.000Z,98636
2022-11-29T18:35:13.000Z,98636
2022-11-29T18:37:20.000Z,98634
2022-11-29T18:39:23.000Z,98638
2022-11-29T18:41:29.000Z,98638
2022-11-29T18:42:56.000Z,98641
2022-11-29T18:45:02.000Z,98638
2022-11-29T18:46:28.000Z,98640
2022-11-29T18:48:35.000Z,98640
2022-11-29T18:50:01.000Z,98639
2022-11-29T18:52:07.000Z,98644
2022-11-29T18:53:34.000Z,98642
2022-11-29T18:55:40.000Z,98644
2022-11-29T18:57:07.000Z,98648
2022-11-29T18:59:13.000Z,98643
2022-11-29T19:02:04.000Z,98647
2022-11-29T19:03:30.000Z,98650
2022-11-29T19:05:36.000Z,98651
2022-11-29T19:07:03.000Z,98651
2022-11-29T19:09:09.000Z,98651
2022-11-29T19:10:36.000Z,98654
2022-11-29T19:12:42.000Z,98655
2022-11-29T19:14:08.000Z,98653
2022-11-29T19:16:14.000Z,98657
2022-11-29T19:17:41.000Z,98659
2022-11-29T19:19:49.000Z,98661
2022-11-29T19:21:15.000Z,98662
2022-11-29T19:23:22.000Z,98665
2022-11-29T19:24:48.000Z,98666
2022-11-29T19:26:54.000Z,98664
2022-11-29T19:28:21.000Z,98663
2022-11-29T19:30:27.000Z,98659
2022-11-29T19:31:53.000Z,98661
2022-11-29T19:34:00.000Z,98663
2022-11-29T19:35:26.000Z,98669
2022-11-29T19:37:32.000Z,98662
2022-11-29T19:40:23.000Z,98663
2022-11-29T19:41:50.000Z,98664
2022-11-29T19:43:56.000Z,98664
2022-11-29T19:45:23.000Z,98662
2022-11-29T19:47:29.000Z,98661
2022-11-29T19:48:55.000Z,98663
2022-11-29T19:51:01.000Z,98664
2022-11-29T19:52:28.000Z,98664
2022-11-29T19:54:34.000Z,98666
2022-11-29T19:56:00.000Z,98665
2022-11-29T19:58:07.000Z,98666
2022-11-29T19:59:33.000Z,98666
2022-11-29T20:01:39.000Z,98664
2022-11-29T20:03:08.000Z,98668
2022-11-29T20:05:14.000Z,98665
2022-11-29T20:06:41.000Z,98667
2022-11-29T20:08:47.000Z,98668
2022-11-29T20:10:13.000Z,98667
2022-11-29T20:12:20.000Z,98671
2022-11-29T20:13:46.000Z,98670
2022-11-29T20:15:52.000Z,98675
2022-11-29T20:18:44.000Z,98678
2022-11-29T20:20:16.000Z,98679
2022-11-29T20:22:22.000Z,98684
2022-11-29T20:23:49.000Z,98686
2022-11-29T20:25:55.000Z,98688
2022-11-29T20:27:22.000Z,98690
2022-11-29T20:29:28.000Z,98686
2022-11-29T20:30:54.000Z,98687
2022-11-29T20:33:01.000Z,98689
2022-11-29T20:34:27.000Z,98689
2022-11-29T20:36:33.000Z,98693
2022-11-29T20:38:00.000Z,98692
2022-11-29T20:40:06.000Z,98697
2022-11-29T20:41:32.000Z,98696
2022-11-29T20:43:38.000Z,98696
2022-11-29T20:45:05.000Z,98694
2022-11-29T20:47:11.000Z,98695
2022-11-29T20:48:37.000Z,98692
2022-11-29T20:50:43.000Z,98696
2022-11-29T20:52:10.000Z,98691
2022-11-29T20:54:16.000Z,98694
2022-11-29T20:57:07.000Z,98700
2022-11-29T20:58:34.000Z,98701
2022-11-29T21:00:40.000Z,98705
2022-11-29T21:02:06.000Z,98707
2022-11-29T21:04:12.000Z,98709
2022-11-29T21:05:39.000Z,98710
2022-11-29T21:07:45.000Z,98713
2022-11-29T21:09:12.000Z,98713
2022-11-29T21:11:18.000Z,98713
2022-11-29T21:12:44.000Z,98710
2022-11-29T21:14:50.000Z,98714
2022-11-29T21:16:17.000Z,98710
2022-11-29T21:18:23.000Z,98712
2022-11-29T21:19:50.000Z,98714
2022-11-29T21:21:56.000Z,98712
2022-11-29T21:23:22.000Z,98711
2022-11-29T21:25:28.000Z,98711
2022-11-29T21:26:55.000Z,98714
2022-11-29T21:29:01.000Z,98709
2022-11-29T21:30:28.000Z,98710
2022-11-29T21:32:34.000Z,98705
2022-11-29T21:35:24.000Z,98703
2022-11-29T21:36:51.000Z,98706
2022-11-29T21:38:57.000Z,98708
2022-11-29T21:40:31.000Z,98707
2022-11-29T21:42:37.000Z,98708
2022-11-29T21:44:03.000Z,98707
2022-11-29T21:46:13.000Z,98711
2022-11-29T21:47:40.000Z,98710
2022-11-29T21:49:46.000Z,98709
2022-11-29T21:51:13.000Z,98708
2022-11-29T21:53:19.000Z,98708
2022-11-29T21:54:45.000Z,98710
2022-11-29T21:56:52.000Z,98712
2022-11-29T21:58:19.000Z,98710
2022-11-29T22:00:25.000Z,98710
2022-11-29T22:01:51.000Z,98711
2022-11-29T22:03:57.000Z,98712
2022-11-29T22:05:24.000Z,98713
2022-11-29T22:07:30.000Z,98715
2022-11-29T22:08:57.000Z,98718
2022-11-29T22:11:03.000Z,98718
2022-11-29T22:13:54.000Z,98715
2022-11-29T22:15:20.000Z,98711
2022-11-29T22:17:30.000Z,98712
2022-11-29T22:18:57.000Z,98712
2022-11-29T22:21:03.000Z,98708
2022-11-29T22:22:29.000Z,98706
2022-11-29T22:24:35.000Z,98704
2022-11-29T22:26:02.000Z,98706
2022-11-29T22:28:08.000Z,98709
2022-11-29T22:29:34.000Z,98711
2022-11-29T22:31:41.000Z,98710
2022-11-29T22:33:07.000Z,98712
2022-11-29T22:35:19.000Z,98709
2022-11-29T22:36:45.000Z,98706
2022-11-29T22:38:51.000Z,98704
2022-11-29T22:40:18.000Z,98709
2022-11-29T22:42:24.000Z,98711
2022-11-29T22:43:51.000Z,98709
2022-11-29T22:45:57.000Z,98710
2022-11-29T22:47:23.000Z,98711
2022-11-29T22:49:29.000Z,98712
2022-11-29T22:52:20.000Z,98712
2022-11-29T22:53:47.000Z,98714
2022-11-29T22:55:53.000Z,98717
2022-11-29T22:57:20.000Z,98719
2022-11-29T22:59:26.000Z,98719
2022-11-29T23:00:52.000Z,98718
2022-11-29T23:02:58.000Z,98721
2022-11-29T23:04:25.000Z,98723
2022-11-29T23:06:31.000Z,98724
2022-11-29T23:07:58.000Z,98727
2022-11-29T23:10:04.000Z,98731
2022-11-29T23:11:30.000Z,98731
2022-11-29T23:13:37.000Z,98733
2022-11-29T23:15:03.000Z,98734
2022-11-29T23:17:09.000Z,98736
2022-11-29T23:18:36.000Z,98735
2022-11-29T23:20:42.000Z,98739
2022-11-29T23:22:08.000Z,98737
2022-11-29T23:24:14.000Z,98737
2022-11-29T23:25:41.000Z,98740
2022-11-29T23:27:47.000Z,98742
2022-11-29T23:30:38.000Z,98738
2022-11-29T23:32:05.000Z,98740